sensor_id;sensor_type;location;lat;lon;timestamp;temperature;humidity
63966;DHT22;50151;52.030;5.350;2022-12-16T00:00:02;-1.30;99.90
63966;DHT22;50151;52.030;5.350;2022-12-16T00:02:29;-1.30;99.90
63966;DHT22;50151;52.030;5.350;2022-12-16T00:04:55;-1.40;99.90
63966;DHT22;50151;52.030;5.350;2022-12-16T00:07:23;-1.40;99.90
63966;DHT22;50151;52.030;5.350;2022-12-16T00:09:50;-1.40;99.90
63966;DHT22;50151;52.030;5.350;2022-12-16T00:12:17;-1.40;99.90
63966;DHT22;50151;52.030;5.350;2022-12-16T00:14:43;-1.50;99.90
63966;DHT22;50151;52.030;5.350;2022-12-16T00:17:10;-1.50;99.90
63966;DHT22;50151;52.030;5.350;2022-12-16T00:19:37;-1.60;99.90
63966;DHT22;50151;52.030;5.350;2022-12-16T00:22:03;-1.60;99.90
63966;DHT22;50151;52.030;5.350;2022-12-16T00:24:30;-1.60;99.90
63966;DHT22;50151;52.030;5.350;2022-12-16T00:26:57;-1.60;99.90
63966;DHT22;50151;52.030;5.350;2022-12-16T00:29:23;-1.70;99.90
63966;DHT22;50151;52.030;5.350;2022-12-16T00:31:50;-1.70;99.90
63966;DHT22;50151;52.030;5.350;2022-12-16T00:34:18;-1.70;99.90
63966;DHT22;50151;52.030;5.350;2022-12-16T00:36:44;-1.70;99.90
63966;DHT22;50151;52.030;5.350;2022-12-16T00:39:11;-1.70;99.90
63966;DHT22;50151;52.030;5.350;2022-12-16T00:41:38;-1.80;99.90
63966;DHT22;50151;52.030;5.350;2022-12-16T00:44:04;-1.80;99.90
63966;DHT22;50151;52.030;5.350;2022-12-16T00:46:31;-1.80;99.90
63966;DHT22;50151;52.030;5.350;2022-12-16T00:48:58;-1.80;99.90
63966;DHT22;50151;52.030;5.350;2022-12-16T00:51:25;-1.80;99.90
63966;DHT22;50151;52.030;5.350;2022-12-16T00:53:52;-1.80;99.90
63966;DHT22;50151;52.030;5.350;2022-12-16T00:56:19;-1.80;99.90
63966;DHT22;50151;52.030;5.350;2022-12-16T00:58:46;-1.90;99.90
63966;DHT22;50151;52.030;5.350;2022-12-16T01:01:13;-2.00;99.90
63966;DHT22;50151;52.030;5.350;2022-12-16T01:03:40;-1.90;99.90
63966;DHT22;50151;52.030;5.350;2022-12-16T01:06:13;-1.90;99.90
63966;DHT22;50151;52.030;5.350;2022-12-16T01:08:41;-2.00;99.90
63966;DHT22;50151;52.030;5.350;2022-12-16T01:11:16;-2.00;99.90
63966;DHT22;50151;52.030;5.350;2022-12-16T01:13:43;-2.00;99.90
63966;DHT22;50151;52.030;5.350;2022-12-16T01:16:10;-2.00;99.90
63966;DHT22;50151;52.030;5.350;2022-12-16T01:18:37;-1.90;99.90
63966;DHT22;50151;52.030;5.350;2022-12-16T01:21:06;-1.90;99.90
63966;DHT22;50151;52.030;5.350;2022-12-16T01:23:34;-1.90;99.90
63966;DHT22;50151;52.030;5.350;2022-12-16T01:26:01;-2.00;99.90
63966;DHT22;50151;52.030;5.350;2022-12-16T01:28:28;-1.90;99.90
63966;DHT22;50151;52.030;5.350;2022-12-16T01:30:56;-1.80;99.90
63966;DHT22;50151;52.030;5.350;2022-12-16T01:33:28;-1.90;99.90
63966;DHT22;50151;52.030;5.350;2022-12-16T01:36:04;-1.90;99.90
63966;DHT22;50151;52.030;5.350;2022-12-16T01:38:31;-1.90;99.90
63966;DHT22;50151;52.030;5.350;2022-12-16T01:40:58;-1.90;99.90
63966;DHT22;50151;52.030;5.350;2022-12-16T01:43:29;-1.90;99.90
63966;DHT22;50151;52.030;5.350;2022-12-16T01:46:05;-1.90;99.90
63966;DHT22;50151;52.030;5.350;2022-12-16T01:48:38;-1.80;99.90
63966;DHT22;50151;52.030;5.350;2022-12-16T01:51:14;-1.80;99.90
63966;DHT22;50151;52.030;5.350;2022-12-16T01:53:43;-1.70;99.90
63966;DHT22;50151;52.030;5.350;2022-12-16T01:56:13;-1.70;99.90
63966;DHT22;50151;52.030;5.350;2022-12-16T01:58:41;-1.70;99.90
63966;DHT22;50151;52.030;5.350;2022-12-16T02:01:09;-1.60;99.90
63966;DHT22;50151;52.030;5.350;2022-12-16T02:03:36;-1.70;99.90
63966;DHT22;50151;52.030;5.350;2022-12-16T02:06:05;-1.70;99.90
63966;DHT22;50151;52.030;5.350;2022-12-16T02:08:32;-1.70;99.90
63966;DHT22;50151;52.030;5.350;2022-12-16T02:14:30;-1.60;99.90
63966;DHT22;50151;52.030;5.350;2022-12-16T02:29:23;-1.40;99.90
63966;DHT22;50151;52.030;5.350;2022-12-16T02:32:20;-1.40;99.90
63966;DHT22;50151;52.030;5.350;2022-12-16T02:35:38;-1.40;99.90
63966;DHT22;50151;52.030;5.350;2022-12-16T02:40:56;-1.40;99.90
63966;DHT22;50151;52.030;5.350;2022-12-16T02:46:05;-1.40;99.90
63966;DHT22;50151;52.030;5.350;2022-12-16T02:48:33;-1.40;99.90
63966;DHT22;50151;52.030;5.350;2022-12-16T02:51:00;-1.40;99.90
63966;DHT22;50151;52.030;5.350;2022-12-16T02:53:27;-1.30;99.90
63966;DHT22;50151;52.030;5.350;2022-12-16T03:04:37;-1.30;99.90
63966;DHT22;50151;52.030;5.350;2022-12-16T03:07:12;-1.20;99.90
63966;DHT22;50151;52.030;5.350;2022-12-16T03:09:40;-1.20;99.90
63966;DHT22;50151;52.030;5.350;2022-12-16T03:12:10;-1.20;99.90
63966;DHT22;50151;52.030;5.350;2022-12-16T03:14:41;-1.20;99.90
63966;DHT22;50151;52.030;5.350;2022-12-16T03:17:09;-1.10;99.90
63966;DHT22;50151;52.030;5.350;2022-12-16T03:19:37;-1.10;99.90
63966;DHT22;50151;52.030;5.350;2022-12-16T03:22:11;-1.10;99.90
63966;DHT22;50151;52.030;5.350;2022-12-16T03:24:39;-1.10;99.90
63966;DHT22;50151;52.030;5.350;2022-12-16T03:30:22;-1.10;99.90
63966;DHT22;50151;52.030;5.350;2022-12-16T03:33:02;-1.00;99.90
63966;DHT22;50151;52.030;5.350;2022-12-16T03:35:34;-1.00;99.90
63966;DHT22;50151;52.030;5.350;2022-12-16T03:38:05;-1.00;99.90
63966;DHT22;50151;52.030;5.350;2022-12-16T03:40:34;-1.00;99.90
63966;DHT22;50151;52.030;5.350;2022-12-16T03:43:02;-0.90;99.90
63966;DHT22;50151;52.030;5.350;2022-12-16T03:45:36;-0.80;99.90
63966;DHT22;50151;52.030;5.350;2022-12-16T03:48:05;-0.70;99.90
63966;DHT22;50151;52.030;5.350;2022-12-16T03:50:34;-0.60;99.90
63966;DHT22;50151;52.030;5.350;2022-12-16T03:53:01;-0.60;99.90
63966;DHT22;50151;52.030;5.350;2022-12-16T03:55:28;-0.50;99.90
63966;DHT22;50151;52.030;5.350;2022-12-16T03:57:55;-0.50;99.90
63966;DHT22;50151;52.030;5.350;2022-12-16T04:00:23;-0.40;99.90
63966;DHT22;50151;52.030;5.350;2022-12-16T04:02:50;-0.40;99.90
63966;DHT22;50151;52.030;5.350;2022-12-16T04:05:17;-0.30;99.90
63966;DHT22;50151;52.030;5.350;2022-12-16T04:07:45;-0.30;99.90
63966;DHT22;50151;52.030;5.350;2022-12-16T04:10:12;-0.30;99.90
63966;DHT22;50151;52.030;5.350;2022-12-16T04:12:38;-0.20;99.90
63966;DHT22;50151;52.030;5.350;2022-12-16T04:15:34;-0.20;99.90
63966;DHT22;50151;52.030;5.350;2022-12-16T04:18:20;-0.10;99.90
63966;DHT22;50151;52.030;5.350;2022-12-16T04:21:05;-0.20;99.90
63966;DHT22;50151;52.030;5.350;2022-12-16T04:23:54;-0.10;99.90
63966;DHT22;50151;52.030;5.350;2022-12-16T04:26:41;-0.10;99.90
63966;DHT22;50151;52.030;5.350;2022-12-16T04:29:26;-0.10;99.90
63966;DHT22;50151;52.030;5.350;2022-12-16T04:31:53;-0.10;99.90
63966;DHT22;50151;52.030;5.350;2022-12-16T04:34:20;-0.10;99.90
63966;DHT22;50151;52.030;5.350;2022-12-16T04:36:59;-0.10;99.90
63966;DHT22;50151;52.030;5.350;2022-12-16T04:39:45;0.00;99.90
63966;DHT22;50151;52.030;5.350;2022-12-16T04:42:31;0.00;99.90
63966;DHT22;50151;52.030;5.350;2022-12-16T04:45:17;0.00;99.90
63966;DHT22;50151;52.030;5.350;2022-12-16T04:48:02;-0.10;99.90
63966;DHT22;50151;52.030;5.350;2022-12-16T04:50:48;0.00;99.90
63966;DHT22;50151;52.030;5.350;2022-12-16T04:53:33;0.00;99.90
63966;DHT22;50151;52.030;5.350;2022-12-16T04:56:18;0.00;99.90
63966;DHT22;50151;52.030;5.350;2022-12-16T04:59:04;0.00;99.90
63966;DHT22;50151;52.030;5.350;2022-12-16T05:01:49;0.00;99.90
63966;DHT22;50151;52.030;5.350;2022-12-16T05:04:35;-0.10;99.90
63966;DHT22;50151;52.030;5.350;2022-12-16T05:07:20;-0.10;99.90
63966;DHT22;50151;52.030;5.350;2022-12-16T05:10:06;-0.10;99.90
63966;DHT22;50151;52.030;5.350;2022-12-16T05:12:54;-0.10;99.90
63966;DHT22;50151;52.030;5.350;2022-12-16T05:15:40;-0.10;99.90
63966;DHT22;50151;52.030;5.350;2022-12-16T05:18:25;0.00;99.90
63966;DHT22;50151;52.030;5.350;2022-12-16T05:21:10;-0.10;99.90
63966;DHT22;50151;52.030;5.350;2022-12-16T05:23:55;-0.10;99.90
63966;DHT22;50151;52.030;5.350;2022-12-16T05:26:41;-0.10;99.90
63966;DHT22;50151;52.030;5.350;2022-12-16T05:29:26;-0.20;99.90
63966;DHT22;50151;52.030;5.350;2022-12-16T05:32:12;-0.20;99.90
63966;DHT22;50151;52.030;5.350;2022-12-16T05:34:57;-0.30;99.90
63966;DHT22;50151;52.030;5.350;2022-12-16T05:37:42;-0.30;99.90
63966;DHT22;50151;52.030;5.350;2022-12-16T05:40:28;-0.40;99.90
63966;DHT22;50151;52.030;5.350;2022-12-16T05:43:13;-0.50;99.90
63966;DHT22;50151;52.030;5.350;2022-12-16T05:45:59;-0.50;99.90
63966;DHT22;50151;52.030;5.350;2022-12-16T05:48:45;-0.50;99.90
63966;DHT22;50151;52.030;5.350;2022-12-16T05:51:30;-0.60;99.90
63966;DHT22;50151;52.030;5.350;2022-12-16T05:54:16;-0.70;99.90
63966;DHT22;50151;52.030;5.350;2022-12-16T05:57:01;-0.70;99.90
63966;DHT22;50151;52.030;5.350;2022-12-16T05:59:46;-0.70;99.90
63966;DHT22;50151;52.030;5.350;2022-12-16T06:02:32;-0.70;99.90
63966;DHT22;50151;52.030;5.350;2022-12-16T06:05:18;-0.80;99.90
63966;DHT22;50151;52.030;5.350;2022-12-16T06:08:03;-0.80;99.90
63966;DHT22;50151;52.030;5.350;2022-12-16T06:10:48;-0.90;99.90
63966;DHT22;50151;52.030;5.350;2022-12-16T06:13:34;-1.00;99.90
63966;DHT22;50151;52.030;5.350;2022-12-16T06:16:22;-1.00;99.90
63966;DHT22;50151;52.030;5.350;2022-12-16T06:19:08;-1.10;99.90
63966;DHT22;50151;52.030;5.350;2022-12-16T06:21:53;-1.20;99.90
63966;DHT22;50151;52.030;5.350;2022-12-16T06:24:41;-1.10;99.90
63966;DHT22;50151;52.030;5.350;2022-12-16T06:27:27;-1.10;99.90
63966;DHT22;50151;52.030;5.350;2022-12-16T06:30:12;-1.10;99.90
63966;DHT22;50151;52.030;5.350;2022-12-16T06:32:57;-1.20;99.90
63966;DHT22;50151;52.030;5.350;2022-12-16T06:35:42;-1.20;99.90
63966;DHT22;50151;52.030;5.350;2022-12-16T06:38:28;-1.20;99.90
63966;DHT22;50151;52.030;5.350;2022-12-16T06:41:13;-1.30;99.90
63966;DHT22;50151;52.030;5.350;2022-12-16T06:43:58;-1.30;99.90
63966;DHT22;50151;52.030;5.350;2022-12-16T06:46:44;-1.30;99.90
63966;DHT22;50151;52.030;5.350;2022-12-16T06:49:29;-1.30;99.90
63966;DHT22;50151;52.030;5.350;2022-12-16T06:52:15;-1.40;99.90
63966;DHT22;50151;52.030;5.350;2022-12-16T06:55:02;-1.50;99.90
63966;DHT22;50151;52.030;5.350;2022-12-16T06:57:47;-1.60;99.90
63966;DHT22;50151;52.030;5.350;2022-12-16T07:00:35;-1.60;99.90
63966;DHT22;50151;52.030;5.350;2022-12-16T07:03:21;-1.70;99.90
63966;DHT22;50151;52.030;5.350;2022-12-16T07:06:06;-1.70;99.90
63966;DHT22;50151;52.030;5.350;2022-12-16T07:08:52;-1.80;99.90
63966;DHT22;50151;52.030;5.350;2022-12-16T07:11:37;-1.80;99.90
63966;DHT22;50151;52.030;5.350;2022-12-16T07:14:23;-1.90;99.90
63966;DHT22;50151;52.030;5.350;2022-12-16T07:17:08;-1.90;99.90
63966;DHT22;50151;52.030;5.350;2022-12-16T07:19:54;-1.90;99.90
63966;DHT22;50151;52.030;5.350;2022-12-16T07:22:44;-1.90;99.90
63966;DHT22;50151;52.030;5.350;2022-12-16T07:25:41;-2.00;99.90
63966;DHT22;50151;52.030;5.350;2022-12-16T07:28:26;-2.00;99.90
63966;DHT22;50151;52.030;5.350;2022-12-16T07:31:12;-2.10;99.90
63966;DHT22;50151;52.030;5.350;2022-12-16T07:33:58;-2.10;99.90
63966;DHT22;50151;52.030;5.350;2022-12-16T07:36:43;-2.30;99.90
63966;DHT22;50151;52.030;5.350;2022-12-16T07:39:28;-2.20;99.90
63966;DHT22;50151;52.030;5.350;2022-12-16T07:42:20;-2.30;99.90
63966;DHT22;50151;52.030;5.350;2022-12-16T07:45:05;-2.30;99.90
63966;DHT22;50151;52.030;5.350;2022-12-16T07:47:51;-2.30;99.90
63966;DHT22;50151;52.030;5.350;2022-12-16T07:50:36;-2.40;99.90
63966;DHT22;50151;52.030;5.350;2022-12-16T07:53:22;-2.40;99.90
63966;DHT22;50151;52.030;5.350;2022-12-16T07:56:08;-2.30;99.90
63966;DHT22;50151;52.030;5.350;2022-12-16T07:58:54;-2.40;99.90
63966;DHT22;50151;52.030;5.350;2022-12-16T08:01:39;-2.40;99.90
63966;DHT22;50151;52.030;5.350;2022-12-16T08:04:25;-2.50;99.90
63966;DHT22;50151;52.030;5.350;2022-12-16T08:07:10;-2.50;99.90
63966;DHT22;50151;52.030;5.350;2022-12-16T08:09:56;-2.50;99.90
63966;DHT22;50151;52.030;5.350;2022-12-16T08:12:41;-2.50;99.90
63966;DHT22;50151;52.030;5.350;2022-12-16T08:15:27;-2.50;99.90
63966;DHT22;50151;52.030;5.350;2022-12-16T08:18:12;-2.50;99.90
63966;DHT22;50151;52.030;5.350;2022-12-16T08:20:58;-2.50;99.90
63966;DHT22;50151;52.030;5.350;2022-12-16T08:23:43;-2.50;99.90
63966;DHT22;50151;52.030;5.350;2022-12-16T08:26:28;-2.50;99.90
63966;DHT22;50151;52.030;5.350;2022-12-16T08:29:14;-2.50;99.90
63966;DHT22;50151;52.030;5.350;2022-12-16T08:32:15;-2.50;99.90
63966;DHT22;50151;52.030;5.350;2022-12-16T08:35:01;-2.50;99.90
63966;DHT22;50151;52.030;5.350;2022-12-16T08:37:46;-2.50;99.90
63966;DHT22;50151;52.030;5.350;2022-12-16T08:40:40;-2.50;99.90
63966;DHT22;50151;52.030;5.350;2022-12-16T08:43:29;-2.40;99.90
63966;DHT22;50151;52.030;5.350;2022-12-16T08:46:20;-2.50;99.90
63966;DHT22;50151;52.030;5.350;2022-12-16T08:49:25;-2.40;99.90
63966;DHT22;50151;52.030;5.350;2022-12-16T08:52:11;-2.40;99.90
63966;DHT22;50151;52.030;5.350;2022-12-16T08:54:56;-2.40;99.90
63966;DHT22;50151;52.030;5.350;2022-12-16T08:57:41;-2.40;99.90
63966;DHT22;50151;52.030;5.350;2022-12-16T09:00:27;-2.40;99.90
63966;DHT22;50151;52.030;5.350;2022-12-16T09:03:12;-2.40;99.90
63966;DHT22;50151;52.030;5.350;2022-12-16T09:05:59;-2.40;99.90
63966;DHT22;50151;52.030;5.350;2022-12-16T09:08:44;-2.30;99.90
63966;DHT22;50151;52.030;5.350;2022-12-16T09:11:30;-2.30;99.90
63966;DHT22;50151;52.030;5.350;2022-12-16T09:14:15;-2.30;99.90
63966;DHT22;50151;52.030;5.350;2022-12-16T09:17:00;-2.20;99.90
63966;DHT22;50151;52.030;5.350;2022-12-16T09:19:45;-2.10;99.90
63966;DHT22;50151;52.030;5.350;2022-12-16T09:22:31;-2.10;99.90
63966;DHT22;50151;52.030;5.350;2022-12-16T09:25:16;-2.10;99.90
63966;DHT22;50151;52.030;5.350;2022-12-16T09:28:02;-2.00;99.90
63966;DHT22;50151;52.030;5.350;2022-12-16T09:30:47;-2.00;99.90
63966;DHT22;50151;52.030;5.350;2022-12-16T09:33:33;-1.80;99.90
63966;DHT22;50151;52.030;5.350;2022-12-16T09:36:19;-1.70;99.90
63966;DHT22;50151;52.030;5.350;2022-12-16T09:39:04;-1.60;99.90
63966;DHT22;50151;52.030;5.350;2022-12-16T09:42:03;-1.40;99.90
63966;DHT22;50151;52.030;5.350;2022-12-16T09:45:00;-1.30;99.90
63966;DHT22;50151;52.030;5.350;2022-12-16T09:48:02;-1.20;99.90
63966;DHT22;50151;52.030;5.350;2022-12-16T09:50:53;-1.10;99.90
63966;DHT22;50151;52.030;5.350;2022-12-16T09:53:41;-1.00;99.90
63966;DHT22;50151;52.030;5.350;2022-12-16T09:56:31;-0.90;99.90
63966;DHT22;50151;52.030;5.350;2022-12-16T09:59:33;-0.90;99.90
63966;DHT22;50151;52.030;5.350;2022-12-16T10:02:19;-0.70;99.90
63966;DHT22;50151;52.030;5.350;2022-12-16T10:06:02;-0.60;99.90
63966;DHT22;50151;52.030;5.350;2022-12-16T10:09:05;-0.40;99.90
63966;DHT22;50151;52.030;5.350;2022-12-16T10:15:13;-0.40;99.90
63966;DHT22;50151;52.030;5.350;2022-12-16T10:18:17;-0.30;99.90
63966;DHT22;50151;52.030;5.350;2022-12-16T10:21:07;-0.20;99.90
63966;DHT22;50151;52.030;5.350;2022-12-16T10:27:28;0.00;99.90
63966;DHT22;50151;52.030;5.350;2022-12-16T10:30:18;0.10;99.90
63966;DHT22;50151;52.030;5.350;2022-12-16T10:33:09;0.10;99.90
63966;DHT22;50151;52.030;5.350;2022-12-16T10:35:55;0.30;99.90
63966;DHT22;50151;52.030;5.350;2022-12-16T10:38:45;0.40;99.90
63966;DHT22;50151;52.030;5.350;2022-12-16T10:41:38;0.50;99.90
63966;DHT22;50151;52.030;5.350;2022-12-16T10:47:13;0.60;99.90
63966;DHT22;50151;52.030;5.350;2022-12-16T10:49:59;0.60;99.90
63966;DHT22;50151;52.030;5.350;2022-12-16T10:58:52;1.10;99.90
63966;DHT22;50151;52.030;5.350;2022-12-16T11:02:01;1.20;99.90
63966;DHT22;50151;52.030;5.350;2022-12-16T11:04:47;1.20;99.90
63966;DHT22;50151;52.030;5.350;2022-12-16T11:07:49;1.20;99.90
63966;DHT22;50151;52.030;5.350;2022-12-16T11:10:41;1.20;99.90
63966;DHT22;50151;52.030;5.350;2022-12-16T11:13:35;1.30;99.90
63966;DHT22;50151;52.030;5.350;2022-12-16T11:16:26;1.30;99.90
63966;DHT22;50151;52.030;5.350;2022-12-16T11:19:37;1.50;99.90
63966;DHT22;50151;52.030;5.350;2022-12-16T11:22:23;1.50;99.90
63966;DHT22;50151;52.030;5.350;2022-12-16T11:28:11;1.60;99.90
63966;DHT22;50151;52.030;5.350;2022-12-16T11:31:06;1.60;99.90
63966;DHT22;50151;52.030;5.350;2022-12-16T11:33:57;1.60;99.90
63966;DHT22;50151;52.030;5.350;2022-12-16T11:36:44;1.70;99.90
63966;DHT22;50151;52.030;5.350;2022-12-16T11:39:31;1.80;99.90
63966;DHT22;50151;52.030;5.350;2022-12-16T11:42:31;1.80;99.90
63966;DHT22;50151;52.030;5.350;2022-12-16T11:45:19;1.90;99.90
63966;DHT22;50151;52.030;5.350;2022-12-16T11:48:17;1.90;99.90
63966;DHT22;50151;52.030;5.350;2022-12-16T11:51:04;1.90;99.90
63966;DHT22;50151;52.030;5.350;2022-12-16T11:54:14;1.90;99.90
63966;DHT22;50151;52.030;5.350;2022-12-16T11:57:03;2.00;99.90
63966;DHT22;50151;52.030;5.350;2022-12-16T11:59:53;2.00;99.90
63966;DHT22;50151;52.030;5.350;2022-12-16T12:05:43;2.10;99.90
63966;DHT22;50151;52.030;5.350;2022-12-16T12:09:34;2.20;99.90
63966;DHT22;50151;52.030;5.350;2022-12-16T12:12:20;2.20;99.90
63966;DHT22;50151;52.030;5.350;2022-12-16T12:18:31;2.30;99.90
63966;DHT22;50151;52.030;5.350;2022-12-16T12:21:31;2.30;99.90
63966;DHT22;50151;52.030;5.350;2022-12-16T12:27:26;2.40;99.90
63966;DHT22;50151;52.030;5.350;2022-12-16T12:30:17;2.50;99.90
63966;DHT22;50151;52.030;5.350;2022-12-16T12:36:32;2.50;99.90
63966;DHT22;50151;52.030;5.350;2022-12-16T12:42:33;2.60;99.90
63966;DHT22;50151;52.030;5.350;2022-12-16T12:54:38;3.10;99.90
63966;DHT22;50151;52.030;5.350;2022-12-16T12:57:27;3.00;99.90
63966;DHT22;50151;52.030;5.350;2022-12-16T13:00:20;3.50;99.90
63966;DHT22;50151;52.030;5.350;2022-12-16T13:06:01;3.20;99.90
63966;DHT22;50151;52.030;5.350;2022-12-16T13:20:55;3.70;99.90
63966;DHT22;50151;52.030;5.350;2022-12-16T13:23:42;3.80;99.90
63966;DHT22;50151;52.030;5.350;2022-12-16T13:26:30;3.80;99.90
63966;DHT22;50151;52.030;5.350;2022-12-16T13:29:27;3.70;99.90
63966;DHT22;50151;52.030;5.350;2022-12-16T13:32:20;3.60;99.90
63966;DHT22;50151;52.030;5.350;2022-12-16T13:37:55;3.50;99.90
63966;DHT22;50151;52.030;5.350;2022-12-16T13:40:58;3.50;99.90
63966;DHT22;50151;52.030;5.350;2022-12-16T13:43:51;3.40;99.90
63966;DHT22;50151;52.030;5.350;2022-12-16T13:46:48;3.50;99.90
63966;DHT22;50151;52.030;5.350;2022-12-16T13:52:55;3.40;99.90
63966;DHT22;50151;52.030;5.350;2022-12-16T13:55:55;3.50;99.90
63966;DHT22;50151;52.030;5.350;2022-12-16T13:58:50;3.50;99.90
63966;DHT22;50151;52.030;5.350;2022-12-16T14:01:40;3.40;99.90
63966;DHT22;50151;52.030;5.350;2022-12-16T14:04:37;3.30;99.90
63966;DHT22;50151;52.030;5.350;2022-12-16T14:07:26;3.30;99.90
63966;DHT22;50151;52.030;5.350;2022-12-16T14:10:34;3.20;99.90
63966;DHT22;50151;52.030;5.350;2022-12-16T14:16:33;3.20;99.90
63966;DHT22;50151;52.030;5.350;2022-12-16T14:26:12;3.10;99.90
63966;DHT22;50151;52.030;5.350;2022-12-16T14:29:00;3.10;99.90
63966;DHT22;50151;52.030;5.350;2022-12-16T14:31:45;3.00;99.90
63966;DHT22;50151;52.030;5.350;2022-12-16T14:34:35;3.00;99.90
63966;DHT22;50151;52.030;5.350;2022-12-16T14:37:33;2.90;99.90
63966;DHT22;50151;52.030;5.350;2022-12-16T14:40:30;2.90;99.90
63966;DHT22;50151;52.030;5.350;2022-12-16T14:43:19;2.80;99.90
63966;DHT22;50151;52.030;5.350;2022-12-16T14:46:05;2.80;99.90
63966;DHT22;50151;52.030;5.350;2022-12-16T14:49:01;2.80;99.90
63966;DHT22;50151;52.030;5.350;2022-12-16T14:51:47;2.80;99.90
63966;DHT22;50151;52.030;5.350;2022-12-16T14:54:37;2.70;99.90
63966;DHT22;50151;52.030;5.350;2022-12-16T14:57:26;2.70;99.90
63966;DHT22;50151;52.030;5.350;2022-12-16T15:03:04;2.60;99.90
63966;DHT22;50151;52.030;5.350;2022-12-16T15:05:51;2.60;99.90
63966;DHT22;50151;52.030;5.350;2022-12-16T15:08:47;2.50;99.90
63966;DHT22;50151;52.030;5.350;2022-12-16T15:11:33;2.50;99.90
63966;DHT22;50151;52.030;5.350;2022-12-16T15:14:29;2.50;99.90
63966;DHT22;50151;52.030;5.350;2022-12-16T15:17:30;2.40;99.90
63966;DHT22;50151;52.030;5.350;2022-12-16T15:20:24;2.40;99.90
63966;DHT22;50151;52.030;5.350;2022-12-16T15:23:30;2.30;99.90
63966;DHT22;50151;52.030;5.350;2022-12-16T15:26:21;2.40;99.90
63966;DHT22;50151;52.030;5.350;2022-12-16T15:29:42;2.30;99.90
63966;DHT22;50151;52.030;5.350;2022-12-16T15:32:30;2.30;99.90
63966;DHT22;50151;52.030;5.350;2022-12-16T15:35:29;2.20;99.90
63966;DHT22;50151;52.030;5.350;2022-12-16T15:38:28;2.10;99.90
63966;DHT22;50151;52.030;5.350;2022-12-16T15:41:30;2.10;99.90
63966;DHT22;50151;52.030;5.350;2022-12-16T15:44:24;2.00;99.90
63966;DHT22;50151;52.030;5.350;2022-12-16T15:47:31;2.00;99.90
63966;DHT22;50151;52.030;5.350;2022-12-16T15:50:23;2.00;99.90
63966;DHT22;50151;52.030;5.350;2022-12-16T15:53:31;2.00;99.90
63966;DHT22;50151;52.030;5.350;2022-12-16T15:59:35;1.90;99.90
63966;DHT22;50151;52.030;5.350;2022-12-16T16:02:27;1.80;99.90
63966;DHT22;50151;52.030;5.350;2022-12-16T16:05:18;1.80;99.90
63966;DHT22;50151;52.030;5.350;2022-12-16T16:08:04;1.70;99.90
63966;DHT22;50151;52.030;5.350;2022-12-16T16:10:50;1.70;99.90
63966;DHT22;50151;52.030;5.350;2022-12-16T16:13:35;1.60;99.90
63966;DHT22;50151;52.030;5.350;2022-12-16T16:16:29;1.60;99.90
63966;DHT22;50151;52.030;5.350;2022-12-16T16:19:23;1.50;99.90
63966;DHT22;50151;52.030;5.350;2022-12-16T16:22:16;1.50;99.90
63966;DHT22;50151;52.030;5.350;2022-12-16T16:25:02;1.40;99.90
63966;DHT22;50151;52.030;5.350;2022-12-16T16:27:47;1.30;99.90
63966;DHT22;50151;52.030;5.350;2022-12-16T16:30:32;1.30;99.90
63966;DHT22;50151;52.030;5.350;2022-12-16T16:33:18;1.20;99.90
63966;DHT22;50151;52.030;5.350;2022-12-16T16:36:13;1.10;99.90
63966;DHT22;50151;52.030;5.350;2022-12-16T16:39:00;1.10;99.90
63966;DHT22;50151;52.030;5.350;2022-12-16T16:41:45;1.00;99.90
63966;DHT22;50151;52.030;5.350;2022-12-16T16:44:38;1.00;99.90
63966;DHT22;50151;52.030;5.350;2022-12-16T16:47:24;0.90;99.90
63966;DHT22;50151;52.030;5.350;2022-12-16T16:50:13;0.80;99.90
63966;DHT22;50151;52.030;5.350;2022-12-16T16:52:58;0.80;99.90
63966;DHT22;50151;52.030;5.350;2022-12-16T16:55:44;0.70;99.90
63966;DHT22;50151;52.030;5.350;2022-12-16T16:58:32;0.70;99.90
63966;DHT22;50151;52.030;5.350;2022-12-16T17:01:18;0.60;99.90
63966;DHT22;50151;52.030;5.350;2022-12-16T17:04:04;0.50;99.90
63966;DHT22;50151;52.030;5.350;2022-12-16T17:06:49;0.50;99.90
63966;DHT22;50151;52.030;5.350;2022-12-16T17:09:35;0.50;99.90
63966;DHT22;50151;52.030;5.350;2022-12-16T17:12:24;0.40;99.90
63966;DHT22;50151;52.030;5.350;2022-12-16T17:15:16;0.30;99.90
63966;DHT22;50151;52.030;5.350;2022-12-16T17:18:03;0.20;99.90
63966;DHT22;50151;52.030;5.350;2022-12-16T17:20:49;0.30;99.90
63966;DHT22;50151;52.030;5.350;2022-12-16T17:23:35;0.20;99.90
63966;DHT22;50151;52.030;5.350;2022-12-16T17:26:21;0.20;99.90
63966;DHT22;50151;52.030;5.350;2022-12-16T17:29:16;0.20;99.90
63966;DHT22;50151;52.030;5.350;2022-12-16T17:32:02;0.20;99.90
63966;DHT22;50151;52.030;5.350;2022-12-16T17:34:47;0.10;99.90
63966;DHT22;50151;52.030;5.350;2022-12-16T17:37:33;0.10;99.90
63966;DHT22;50151;52.030;5.350;2022-12-16T17:40:18;0.10;99.90
63966;DHT22;50151;52.030;5.350;2022-12-16T17:43:04;0.10;99.90
63966;DHT22;50151;52.030;5.350;2022-12-16T17:46:02;0.10;99.90
63966;DHT22;50151;52.030;5.350;2022-12-16T17:48:51;0.00;99.90
63966;DHT22;50151;52.030;5.350;2022-12-16T17:51:36;0.00;99.90
63966;DHT22;50151;52.030;5.350;2022-12-16T17:54:22;0.00;99.90
63966;DHT22;50151;52.030;5.350;2022-12-16T17:57:07;0.00;99.90
63966;DHT22;50151;52.030;5.350;2022-12-16T17:59:55;-0.10;99.90
63966;DHT22;50151;52.030;5.350;2022-12-16T18:02:40;-0.10;99.90
63966;DHT22;50151;52.030;5.350;2022-12-16T18:05:26;-0.10;99.90
63966;DHT22;50151;52.030;5.350;2022-12-16T18:08:11;-0.10;99.90
63966;DHT22;50151;52.030;5.350;2022-12-16T18:10:57;-0.10;99.90
63966;DHT22;50151;52.030;5.350;2022-12-16T18:13:43;-0.10;99.90
63966;DHT22;50151;52.030;5.350;2022-12-16T18:16:28;-0.10;99.90
63966;DHT22;50151;52.030;5.350;2022-12-16T18:19:15;-0.10;99.90
63966;DHT22;50151;52.030;5.350;2022-12-16T18:22:00;-0.20;99.90
63966;DHT22;50151;52.030;5.350;2022-12-16T18:24:46;-0.20;99.90
63966;DHT22;50151;52.030;5.350;2022-12-16T18:27:31;-0.20;99.90
63966;DHT22;50151;52.030;5.350;2022-12-16T18:30:16;-0.10;99.90
63966;DHT22;50151;52.030;5.350;2022-12-16T18:33:02;-0.10;99.90
63966;DHT22;50151;52.030;5.350;2022-12-16T18:35:47;-0.10;99.90
63966;DHT22;50151;52.030;5.350;2022-12-16T18:38:33;-0.10;99.90
63966;DHT22;50151;52.030;5.350;2022-12-16T18:41:20;-0.10;99.90
63966;DHT22;50151;52.030;5.350;2022-12-16T18:44:08;-0.10;99.90
63966;DHT22;50151;52.030;5.350;2022-12-16T18:46:54;-0.10;99.90
63966;DHT22;50151;52.030;5.350;2022-12-16T18:49:39;0.00;99.90
63966;DHT22;50151;52.030;5.350;2022-12-16T18:52:25;0.00;99.90
63966;DHT22;50151;52.030;5.350;2022-12-16T18:55:10;0.00;99.90
63966;DHT22;50151;52.030;5.350;2022-12-16T18:57:56;0.00;99.90
63966;DHT22;50151;52.030;5.350;2022-12-16T19:01:04;0.00;99.90
63966;DHT22;50151;52.030;5.350;2022-12-16T19:03:55;0.10;99.90
63966;DHT22;50151;52.030;5.350;2022-12-16T19:06:41;0.10;99.90
63966;DHT22;50151;52.030;5.350;2022-12-16T19:09:28;0.10;99.90
63966;DHT22;50151;52.030;5.350;2022-12-16T19:12:13;0.10;99.90
63966;DHT22;50151;52.030;5.350;2022-12-16T19:14:59;0.10;99.90
63966;DHT22;50151;52.030;5.350;2022-12-16T19:17:44;0.10;99.90
63966;DHT22;50151;52.030;5.350;2022-12-16T19:20:30;0.10;99.90